createdAt,value
2018-09-24T00:01:18.431Z,97288.72
2018-09-24T00:03:45.590Z,97272.19
2018-09-24T00:06:12.772Z,97283.72
2018-09-24T00:08:39.964Z,97300.52
2018-09-24T00:11:07.145Z,97308.62
2018-09-24T00:13:34.348Z,97310.28
2018-09-24T00:16:01.564Z,97325.61
2018-09-24T00:18:28.741Z,97330.91
2018-09-24T00:20:55.908Z,97344.62
2018-09-24T00:23:23.896Z,97355.09
2018-09-24T00:25:51.137Z,97365.42
2018-09-24T00:28:18.308Z,97378.17
2018-09-24T00:30:45.489Z,97383.66
2018-09-24T00:33:12.664Z,97393.02
2018-09-24T00:35:39.780Z,97401.91
2018-09-24T00:38:06.936Z,97401.87
2018-09-24T00:40:34.073Z,97412.50
2018-09-24T00:43:01.246Z,97410.13
2018-09-24T00:45:28.477Z,97413.82
2018-09-24T00:47:55.605Z,97415.89
2018-09-24T00:50:22.800Z,97423.45
2018-09-24T00:52:50.020Z,97428.81
2018-09-24T00:55:17.231Z,97428.59
2018-09-24T00:57:44.390Z,97431.22
2018-09-24T01:00:11.579Z,97439.33
2018-09-24T01:02:38.684Z,97442.06
2018-09-24T01:05:05.997Z,97441.22
2018-09-24T01:07:33.139Z,97455.29
2018-09-24T01:10:00.261Z,97465.69
2018-09-24T01:12:27.437Z,97475.31
2018-09-24T01:14:54.571Z,97478.37
2018-09-24T01:17:21.720Z,97483.52
2018-09-24T01:19:48.887Z,97484.89
2018-09-24T01:22:16.028Z,97489.81
2018-09-24T01:24:43.148Z,97494.02
2018-09-24T01:27:11.355Z,97503.48
2018-09-24T01:29:38.513Z,97504.20
2018-09-24T01:32:05.682Z,97505.86
2018-09-24T01:34:32.837Z,97509.00
2018-09-24T01:36:59.983Z,97512.38
2018-09-24T01:39:27.103Z,97513.14
2018-09-24T01:41:54.283Z,97527.16
2018-09-24T01:44:21.430Z,97526.66
2018-09-24T01:46:48.564Z,97527.42
2018-09-24T01:49:15.687Z,97532.70
2018-09-24T01:51:42.891Z,97528.66
2018-09-24T01:54:10.073Z,97538.92
2018-09-24T01:56:37.269Z,97540.22
2018-09-24T01:59:04.469Z,97539.41
2018-09-24T02:01:32.132Z,97541.50
2018-09-24T02:03:59.287Z,97542.82
2018-09-24T02:06:26.429Z,97543.91
2018-09-24T02:08:53.585Z,97549.40
2018-09-24T02:11:20.713Z,97552.00
2018-09-24T02:13:50.240Z,97550.52
2018-09-24T02:16:17.876Z,97551.81
2018-09-24T02:18:45.537Z,97548.27
2018-09-24T02:21:12.751Z,97555.20
2018-09-24T02:23:39.901Z,97560.65
2018-09-24T02:26:07.126Z,97566.61
2018-09-24T02:28:34.282Z,97574.89
2018-09-24T02:31:01.420Z,97572.00
2018-09-24T02:33:28.613Z,97571.63
2018-09-24T02:35:55.787Z,97584.41
2018-09-24T02:38:22.940Z,97587.17
2018-09-24T02:40:50.120Z,97586.71
2018-09-24T02:43:22.534Z,97593.73
2018-09-24T02:45:49.807Z,97600.87
2018-09-24T02:48:16.942Z,97601.65
2018-09-24T02:50:44.122Z,97602.70
2018-09-24T02:53:11.308Z,97608.20
2018-09-24T02:55:38.528Z,97602.38
2018-09-24T02:58:05.741Z,97609.24
2018-09-24T03:00:32.936Z,97614.28
2018-09-24T03:03:00.521Z,97612.43
2018-09-24T03:05:27.705Z,97619.54
2018-09-24T03:07:55.082Z,97619.77
2018-09-24T03:10:22.240Z,97625.03
2018-09-24T03:12:51.399Z,97629.77
2018-09-24T03:15:18.825Z,97629.81
2018-09-24T03:17:46.000Z,97632.17
2018-09-24T03:20:13.343Z,97642.69
2018-09-24T03:22:40.529Z,97637.41
2018-09-24T03:25:07.830Z,97635.58
2018-09-24T03:27:34.951Z,97632.47
2018-09-24T03:30:02.282Z,97642.80
2018-09-24T03:32:29.474Z,97637.30
2018-09-24T03:34:56.643Z,97641.03
2018-09-24T03:37:23.828Z,97644.45
2018-09-24T03:39:51.065Z,97651.81
2018-09-24T03:42:18.280Z,97656.04
2018-09-24T03:44:45.489Z,97648.94
2018-09-24T03:47:12.699Z,97655.51
2018-09-24T03:49:39.853Z,97656.62
2018-09-24T03:52:07.074Z,97657.99
2018-09-24T03:54:34.250Z,97668.73
2018-09-24T03:57:01.412Z,97669.31
2018-09-24T03:59:28.589Z,97678.16
2018-09-24T04:01:55.759Z,97668.52
2018-09-24T04:04:28.500Z,97670.38
2018-09-24T04:07:01.507Z,97670.39
2018-09-24T04:09:34.462Z,97677.73
2018-09-24T04:12:07.381Z,97681.13
2018-09-24T04:14:40.103Z,97679.30
2018-09-24T04:17:13.193Z,97675.70
2018-09-24T04:19:46.093Z,97689.13
2018-09-24T04:22:19.089Z,97679.48
2018-09-24T04:24:52.008Z,97692.34
2018-09-24T04:27:24.884Z,97691.34
2018-09-24T04:29:57.636Z,97692.97
2018-09-24T04:32:30.621Z,97704.56
2018-09-24T04:35:03.561Z,97699.86
2018-09-24T04:37:36.644Z,97715.66
2018-09-24T04:40:10.127Z,97715.39
2018-09-24T04:42:43.208Z,97708.02
2018-09-24T04:45:16.163Z,97701.42
2018-09-24T04:47:48.932Z,97705.15
2018-09-24T04:50:21.686Z,97710.67
2018-09-24T04:52:54.540Z,97711.52
2018-09-24T04:55:27.424Z,97720.68
2018-09-24T04:58:00.420Z,97719.36
2018-09-24T05:00:33.384Z,97736.95
2018-09-24T05:03:06.404Z,97739.86
2018-09-24T05:05:39.145Z,97746.73
2018-09-24T05:08:12.065Z,97756.17
2018-09-24T05:10:44.924Z,97761.98
2018-09-24T05:13:17.934Z,97767.23
2018-09-24T05:15:50.907Z,97776.44
2018-09-24T05:18:23.556Z,97774.58
2018-09-24T05:20:56.255Z,97778.78
2018-09-24T05:23:29.211Z,97777.45
2018-09-24T05:26:01.848Z,97784.02
2018-09-24T05:28:34.848Z,97787.70
2018-09-24T05:31:07.763Z,97791.39
2018-09-24T05:33:40.704Z,97790.84
2018-09-24T05:36:13.611Z,97792.96
2018-09-24T05:38:46.596Z,97800.09
2018-09-24T05:41:19.379Z,97800.09
2018-09-24T05:43:52.277Z,97796.28
2018-09-24T05:46:25.342Z,97800.91
2018-09-24T05:48:58.324Z,97798.64
2018-09-24T05:51:31.340Z,97795.66
2018-09-24T05:54:04.013Z,97811.42
2018-09-24T05:56:36.963Z,97818.27
2018-09-24T05:59:09.846Z,97816.73
2018-09-24T06:01:42.609Z,97816.91
2018-09-24T06:04:15.567Z,97824.41
2018-09-24T06:06:48.425Z,97829.68
2018-09-24T06:09:21.380Z,97844.35
2018-09-24T06:11:54.158Z,97848.00
2018-09-24T06:14:27.005Z,97851.64
2018-09-24T06:16:59.902Z,97851.69
2018-09-24T06:19:32.601Z,97856.12
2018-09-24T06:22:05.604Z,97866.23
2018-09-24T06:24:38.533Z,97856.73
2018-09-24T06:27:11.275Z,97872.53
2018-09-24T06:29:44.316Z,97863.47
2018-09-24T06:32:17.287Z,97879.88
2018-09-24T06:34:49.987Z,97885.91
2018-09-24T06:37:22.875Z,97880.66
2018-09-24T06:39:55.756Z,97893.77
2018-09-24T06:42:28.459Z,97894.28
2018-09-24T06:45:01.420Z,97909.35
2018-09-24T06:47:34.138Z,97898.03
2018-09-24T06:50:07.147Z,97903.75
2018-09-24T06:52:40.106Z,97910.63
2018-09-24T06:55:13.120Z,97911.15
2018-09-24T06:57:45.965Z,97906.95
2018-09-24T07:00:18.958Z,97928.51
2018-09-24T07:02:51.681Z,97936.42
2018-09-24T07:05:24.755Z,97938.22
2018-09-24T07:07:57.808Z,97932.67
2018-09-24T07:10:30.697Z,97946.34
2018-09-24T07:13:03.700Z,97950.80
2018-09-24T07:15:36.672Z,97946.45
2018-09-24T07:18:09.664Z,97957.13
2018-09-24T07:20:42.611Z,97967.52
2018-09-24T07:23:15.540Z,97978.32
2018-09-24T07:25:48.226Z,97978.84
2018-09-24T07:28:21.256Z,97980.06
2018-09-24T07:30:53.985Z,97979.53
2018-09-24T07:33:26.984Z,97973.77
2018-09-24T07:35:59.979Z,97981.64
2018-09-24T07:38:32.960Z,97996.02
2018-09-24T07:41:05.869Z,98006.78
2018-09-24T07:43:38.855Z,98003.19
2018-09-24T07:46:11.847Z,98003.73
2018-09-24T07:48:44.775Z,98011.64
2018-09-24T07:51:17.780Z,98006.63
2018-09-24T07:53:50.512Z,98019.47
2018-09-24T07:56:23.363Z,98021.66
2018-09-24T07:58:56.305Z,98036.30
2018-09-24T08:01:29.281Z,98033.33
2018-09-24T08:04:02.213Z,98035.69
2018-09-24T08:06:35.224Z,98047.03
2018-09-24T08:09:08.213Z,98046.74
2018-09-24T08:11:41.112Z,98040.26
2018-09-24T08:14:13.866Z,98050.37
2018-09-24T08:16:46.777Z,98058.95
2018-09-24T08:19:19.731Z,98062.58
2018-09-24T08:21:52.656Z,98067.40
2018-09-24T08:24:25.328Z,98066.84
2018-09-24T08:26:58.257Z,98086.32
2018-09-24T08:29:31.148Z,98072.67
2018-09-24T08:32:04.044Z,98075.98
2018-09-24T08:34:36.767Z,98089.05
2018-09-24T08:37:09.752Z,98086.16
2018-09-24T08:39:42.754Z,98095.31
2018-09-24T08:42:15.688Z,98083.56
2018-09-24T08:44:48.590Z,98092.80
2018-09-24T08:47:21.569Z,98094.22
2018-09-24T08:49:54.276Z,98092.61
2018-09-24T08:52:27.048Z,98088.11
2018-09-24T08:55:00.001Z,98105.64
2018-09-24T08:57:32.981Z,98102.22
2018-09-24T09:00:05.933Z,98099.50
2018-09-24T09:02:38.890Z,98103.77
2018-09-24T09:05:11.788Z,98097.16
2018-09-24T09:07:44.545Z,98106.88
2018-09-24T09:10:17.476Z,98110.75
2018-09-24T09:12:50.353Z,98115.64
2018-09-24T09:15:23.307Z,98111.62
2018-09-24T09:17:56.033Z,98117.07
2018-09-24T09:20:28.987Z,98118.02
2018-09-24T09:23:01.991Z,98133.20
2018-09-24T09:25:34.864Z,98119.84
2018-09-24T09:28:08.847Z,98120.05
2018-09-24T09:30:41.583Z,98125.45
2018-09-24T09:33:14.583Z,98123.17
2018-09-24T09:35:47.384Z,98123.03
2018-09-24T09:38:20.273Z,98127.44
2018-09-24T09:40:53.266Z,98136.85
2018-09-24T09:43:26.226Z,98141.09
2018-09-24T09:45:58.929Z,98134.74
2018-09-24T09:48:31.800Z,98142.20
2018-09-24T09:51:04.441Z,98144.84
2018-09-24T09:53:37.270Z,98133.69
2018-09-24T09:56:10.144Z,98141.41
2018-09-24T09:58:43.058Z,98141.25
2018-09-24T10:01:15.952Z,98138.92
2018-09-24T10:03:48.858Z,98143.43
2018-09-24T10:06:21.628Z,98136.31
2018-09-24T10:08:54.539Z,98138.45
2018-09-24T10:11:27.453Z,98135.84
2018-09-24T10:14:00.392Z,98144.44
2018-09-24T10:16:33.103Z,98139.93
2018-09-24T10:19:05.900Z,98153.47
2018-09-24T10:21:38.661Z,98151.02
2018-09-24T10:24:11.555Z,98158.02
2018-09-24T10:26:44.455Z,98154.36
2018-09-24T10:29:17.376Z,98160.36
2018-09-24T10:31:50.142Z,98157.89
2018-09-24T10:34:23.011Z,98150.52
2018-09-24T10:36:55.772Z,98158.55
2018-09-24T10:39:28.545Z,98159.44
2018-09-24T10:42:01.305Z,98156.50
2018-09-24T10:44:34.133Z,98161.88
2018-09-24T10:47:06.820Z,98154.77
2018-09-24T10:49:39.623Z,98157.02
2018-09-24T10:52:12.620Z,98157.86
2018-09-24T10:54:45.580Z,98167.67
2018-09-24T10:57:18.546Z,98152.31
2018-09-24T10:59:51.335Z,98162.29
2018-09-24T11:02:24.321Z,98161.44
2018-09-24T11:04:57.263Z,98155.94
2018-09-24T11:07:30.123Z,98165.05
2018-09-24T11:10:03.031Z,98161.25
2018-09-24T11:12:35.722Z,98171.38
2018-09-24T11:15:08.762Z,98189.86
2018-09-24T11:17:41.861Z,98183.46
2018-09-24T11:20:14.673Z,98191.25
2018-09-24T11:22:47.391Z,98182.39
2018-09-24T11:25:20.148Z,98182.70
2018-09-24T11:27:53.062Z,98194.78
2018-09-24T11:30:25.961Z,98195.57
2018-09-24T11:32:58.638Z,98197.63
2018-09-24T11:35:31.503Z,98186.21
2018-09-24T11:38:04.452Z,98194.52
2018-09-24T11:40:37.354Z,98206.68
2018-09-24T11:43:10.357Z,98204.97
2018-09-24T11:45:43.220Z,98200.75
2018-09-24T11:48:16.166Z,98192.94
2018-09-24T11:50:49.126Z,98188.33
2018-09-24T11:53:22.020Z,98198.47
2018-09-24T11:55:54.911Z,98197.03
2018-09-24T11:58:27.702Z,98209.84
2018-09-24T12:01:00.580Z,98206.11
2018-09-24T12:03:33.356Z,98208.38
2018-09-24T12:06:06.269Z,98198.18
2018-09-24T12:08:39.312Z,98196.34
2018-09-24T12:11:12.171Z,98190.17
2018-09-24T12:13:44.933Z,98186.92
2018-09-24T12:16:17.872Z,98187.55
2018-09-24T12:18:50.586Z,98180.37
2018-09-24T12:21:23.516Z,98175.80
2018-09-24T12:23:56.289Z,98171.66
2018-09-24T12:26:29.165Z,98165.25
2018-09-24T12:29:02.092Z,98174.81
2018-09-24T12:31:34.904Z,98179.61
2018-09-24T12:34:07.888Z,98181.89
2018-09-24T12:36:40.612Z,98180.50
2018-09-24T12:39:13.383Z,98174.89
2018-09-24T12:41:46.383Z,98183.23
2018-09-24T12:44:19.323Z,98184.02
2018-09-24T12:46:52.288Z,98191.69
2018-09-24T12:49:24.955Z,98197.70
2018-09-24T12:51:57.881Z,98189.08
2018-09-24T12:54:30.770Z,98187.70
2018-09-24T12:57:03.760Z,98189.47
2018-09-24T12:59:36.824Z,98189.51
2018-09-24T13:02:09.525Z,98189.87
2018-09-24T13:04:42.507Z,98193.98
2018-09-24T13:07:15.502Z,98170.76
2018-09-24T13:09:48.464Z,98179.45
2018-09-24T13:12:21.464Z,98176.30
2018-09-24T13:14:54.377Z,98183.30
2018-09-24T13:17:27.267Z,98178.83
2018-09-24T13:20:00.153Z,98178.91
2018-09-24T13:22:33.105Z,98172.13
2018-09-24T13:25:06.132Z,98167.94
2018-09-24T13:27:39.040Z,98175.39
2018-09-24T13:30:11.749Z,98169.13
2018-09-24T13:32:44.605Z,98173.45
2018-09-24T13:35:17.301Z,98174.17
2018-09-24T13:37:50.026Z,98182.33
2018-09-24T13:40:22.972Z,98173.06
2018-09-24T13:42:55.941Z,98169.79
2018-09-24T13:45:28.788Z,98167.67
2018-09-24T13:48:01.688Z,98167.62
2018-09-24T13:50:34.611Z,98162.55
2018-09-24T13:53:07.529Z,98163.00
2018-09-24T13:55:40.283Z,98158.00
2018-09-24T13:58:13.237Z,98153.79
2018-09-24T14:00:45.948Z,98162.03
2018-09-24T14:03:18.725Z,98149.07
2018-09-24T14:05:51.727Z,98147.99
2018-09-24T14:08:24.668Z,98150.72
2018-09-24T14:10:57.669Z,98161.05
2018-09-24T14:13:30.368Z,98158.28
2018-09-24T14:16:03.130Z,98147.44
2018-09-24T14:18:36.073Z,98149.21
2018-09-24T14:21:09.000Z,98146.71
2018-09-24T14:30:48.227Z,98151.99
2018-09-24T14:33:21.226Z,98158.15
2018-09-24T14:35:54.001Z,98157.72
2018-09-24T14:45:35.152Z,98138.97
2018-09-24T14:48:07.984Z,98154.47
2018-09-24T14:50:40.917Z,98152.63
2018-09-24T14:53:13.845Z,98154.55
2018-09-24T14:55:46.866Z,98158.58
2018-09-24T14:58:19.934Z,98150.62
2018-09-24T15:00:52.698Z,98155.39
2018-09-24T15:03:27.533Z,98151.89
2018-09-24T15:06:01.365Z,98162.30
2018-09-24T15:08:35.137Z,98159.56
2018-09-24T15:11:08.048Z,98154.01
2018-09-24T15:13:41.103Z,98152.20
2018-09-24T15:16:13.861Z,98153.51
2018-09-24T15:18:46.874Z,98155.99
2018-09-24T15:21:19.781Z,98154.23
2018-09-24T15:23:52.726Z,98157.42
2018-09-24T15:26:25.753Z,98158.22
2018-09-24T15:28:58.702Z,98160.55
2018-09-24T15:31:31.618Z,98165.23
2018-09-24T15:34:04.644Z,98155.53
2018-09-24T15:36:37.590Z,98158.67
2018-09-24T15:39:10.797Z,98169.42
2018-09-24T15:41:43.750Z,98164.73
2018-09-24T15:44:16.664Z,98167.34
2018-09-24T15:46:49.446Z,98167.94
2018-09-24T15:49:22.361Z,98170.13
2018-09-24T15:51:55.336Z,98165.89
2018-09-24T15:54:28.334Z,98166.14
2018-09-24T15:57:01.257Z,98165.48
2018-09-24T15:59:34.282Z,98166.34
2018-09-24T16:02:07.300Z,98170.02
2018-09-24T16:04:40.308Z,98171.35
2018-09-24T16:07:13.142Z,98158.97
2018-09-24T16:09:46.122Z,98162.76
2018-09-24T16:12:19.168Z,98155.09
2018-09-24T16:14:52.108Z,98162.38
2018-09-24T16:17:25.060Z,98166.28
2018-09-24T16:19:57.938Z,98177.95
2018-09-24T16:22:30.752Z,98175.52
2018-09-24T16:25:03.755Z,98173.93
2018-09-24T16:27:36.534Z,98177.39
2018-09-24T16:30:09.525Z,98170.00
2018-09-24T16:32:44.359Z,98173.05
2018-09-24T16:35:17.696Z,98175.03
2018-09-24T16:37:50.672Z,98175.93
2018-09-24T16:40:23.469Z,98182.09
2018-09-24T16:42:56.577Z,98176.66
2018-09-24T16:45:29.576Z,98182.13
2018-09-24T16:48:02.612Z,98190.95
2018-09-24T16:50:35.563Z,98192.24
2018-09-24T16:53:08.347Z,98200.19
2018-09-24T16:55:41.346Z,98198.98
2018-09-24T16:58:14.317Z,98194.87
2018-09-24T17:00:47.190Z,98203.16
2018-09-24T17:03:20.290Z,98208.00
2018-09-24T17:05:53.283Z,98208.29
2018-09-24T17:08:26.292Z,98206.89
2018-09-24T17:10:58.996Z,98210.83
2018-09-24T17:13:31.986Z,98216.05
2018-09-24T17:16:04.961Z,98219.88
2018-09-24T17:18:37.967Z,98223.74
2018-09-24T17:21:11.038Z,98228.43
2018-09-24T17:23:44.146Z,98248.09
2018-09-24T17:26:17.136Z,98248.61
2018-09-24T17:28:50.004Z,98252.60
2018-09-24T17:31:23.005Z,98255.16
2018-09-24T17:33:56.014Z,98254.27
2018-09-24T17:36:29.102Z,98256.55
2018-09-24T17:39:01.918Z,98260.04
2018-09-24T17:41:34.859Z,98259.23
2018-09-24T17:44:07.914Z,98262.69
2018-09-24T17:46:40.874Z,98264.25
2018-09-24T17:49:13.832Z,98264.89
2018-09-24T17:51:46.880Z,98263.89
2018-09-24T17:54:19.923Z,98270.59
2018-09-24T17:56:52.876Z,98274.88
2018-09-24T17:59:25.659Z,98281.61
2018-09-24T18:01:58.687Z,98286.61
2018-09-24T18:04:31.770Z,98283.97
2018-09-24T18:07:04.746Z,98286.75
2018-09-24T18:09:37.760Z,98290.68
2018-09-24T18:12:10.665Z,98299.43
2018-09-24T18:14:43.651Z,98302.35
2018-09-24T18:17:16.626Z,98308.42
2018-09-24T18:19:49.645Z,98312.11
2018-09-24T18:22:22.685Z,98305.33
2018-09-24T18:24:55.691Z,98306.69
2018-09-24T18:27:28.671Z,98308.81
2018-09-24T18:30:01.556Z,98318.09
2018-09-24T18:32:41.294Z,98322.83
2018-09-24T18:35:13.977Z,98328.08
2018-09-24T18:37:46.968Z,98320.21
2018-09-24T18:40:20.001Z,98330.27
2018-09-24T18:42:52.905Z,98336.39
2018-09-24T18:45:25.879Z,98336.74
2018-09-24T18:47:58.826Z,98339.41
2018-09-24T18:50:31.832Z,98342.03
2018-09-24T18:53:04.766Z,98340.17
2018-09-24T18:55:37.467Z,98351.27
2018-09-24T18:58:11.021Z,98363.97
2018-09-24T19:00:43.938Z,98368.97
2018-09-24T19:03:16.927Z,98365.23
2018-09-24T19:05:49.813Z,98368.17
2018-09-24T19:08:22.900Z,98377.67
2018-09-24T19:10:55.817Z,98391.13
2018-09-24T19:13:28.750Z,98398.27
2018-09-24T19:16:01.601Z,98415.16
2018-09-24T19:18:34.663Z,98412.02
2018-09-24T19:21:07.501Z,98418.63
2018-09-24T19:23:40.508Z,98429.69
2018-09-24T19:26:13.432Z,98444.41
2018-09-24T19:28:46.371Z,98439.63
2018-09-24T19:31:19.163Z,98441.47
2018-09-24T19:33:52.093Z,98448.23
2018-09-24T19:36:24.811Z,98455.05
2018-09-24T19:38:57.831Z,98464.70
2018-09-24T19:41:30.843Z,98465.36
2018-09-24T19:44:03.773Z,98467.83
2018-09-24T19:46:36.725Z,98469.14
2018-09-24T19:49:09.714Z,98463.05
2018-09-24T19:51:42.640Z,98363.41
2018-09-24T19:54:15.658Z,98437.70
2018-09-24T19:56:48.669Z,98435.86
2018-09-24T19:59:21.641Z,98439.84
2018-09-24T20:01:54.704Z,98444.77
2018-09-24T20:04:27.517Z,98435.81
2018-09-24T20:07:00.456Z,98434.80
2018-09-24T20:09:33.232Z,98454.77
2018-09-24T20:12:06.300Z,98455.31
2018-09-24T20:14:39.287Z,98459.72
2018-09-24T20:17:12.444Z,98457.87
2018-09-24T20:19:45.392Z,98456.23
2018-09-24T20:22:18.303Z,98458.65
2018-09-24T20:24:51.307Z,98459.98
2018-09-24T20:27:24.346Z,98460.05
2018-09-24T20:29:57.265Z,98462.22
2018-09-24T20:32:30.060Z,98457.20
2018-09-24T20:35:02.751Z,98466.73
2018-09-24T20:37:35.745Z,98465.19
2018-09-24T20:40:09.644Z,98457.21
2018-09-24T20:42:42.673Z,98467.41
2018-09-24T20:45:15.411Z,98470.20
2018-09-24T20:47:48.185Z,98466.42
2018-09-24T20:50:21.135Z,98474.23
2018-09-24T20:52:54.083Z,98468.84
2018-09-24T20:55:26.920Z,98481.77
2018-09-24T20:57:59.635Z,98482.52
2018-09-24T21:00:32.592Z,98478.73
2018-09-24T21:03:06.009Z,98480.25
2018-09-24T21:05:38.819Z,98484.70
2018-09-24T21:08:11.808Z,98477.50
2018-09-24T21:10:44.551Z,98491.05
2018-09-24T21:13:17.527Z,98483.30
2018-09-24T21:15:50.520Z,98491.17
2018-09-24T21:18:23.597Z,98490.20
2018-09-24T21:20:56.276Z,98502.25
2018-09-24T21:23:29.228Z,98499.72
2018-09-24T21:26:01.965Z,98496.04
2018-09-24T21:28:34.662Z,98497.09
2018-09-24T21:31:07.455Z,98510.91
2018-09-24T21:33:40.448Z,98510.88
2018-09-24T21:36:13.425Z,98508.16
2018-09-24T21:38:46.096Z,98505.77
2018-09-24T21:41:18.987Z,98516.91
2018-09-24T21:43:51.724Z,98511.56
2018-09-24T21:46:24.859Z,98523.47
2018-09-24T21:48:57.412Z,98520.19
2018-09-24T21:51:30.230Z,98528.81
2018-09-24T21:54:03.056Z,98523.37
2018-09-24T21:56:35.688Z,98526.81
2018-09-24T21:59:08.726Z,98531.03
2018-09-24T22:01:41.672Z,98532.30
2018-09-24T22:04:14.722Z,98532.34
2018-09-24T22:06:47.728Z,98534.18
2018-09-24T22:09:20.500Z,98535.17
2018-09-24T22:11:53.284Z,98545.16
2018-09-24T22:14:26.154Z,98538.18
2018-09-24T22:16:58.971Z,98546.11
2018-09-24T22:19:31.732Z,98542.71
2018-09-24T22:22:04.580Z,98552.53
2018-09-24T22:24:37.361Z,98547.02
2018-09-24T22:27:10.385Z,98546.63
2018-09-24T22:29:43.112Z,98543.61
2018-09-24T22:32:16.143Z,98551.07
2018-09-24T22:41:54.677Z,98561.78
2018-09-24T22:44:27.533Z,98566.99
2018-09-24T22:47:00.435Z,98568.55
2018-09-24T22:49:33.325Z,98566.67
2018-09-24T22:52:06.260Z,98564.95
2018-09-24T22:54:39.184Z,98571.43
2018-09-24T22:57:12.488Z,98573.09
2018-09-24T22:59:45.436Z,98583.00
2018-09-24T23:02:18.339Z,98581.84
2018-09-24T23:04:51.324Z,98594.23
2018-09-24T23:07:24.263Z,98591.83
2018-09-24T23:09:56.957Z,98592.52
2018-09-24T23:12:29.881Z,98600.60
2018-09-24T23:15:03.005Z,98592.83
2018-09-24T23:17:36.063Z,98586.81
2018-09-24T23:20:09.371Z,98584.89
2018-09-24T23:22:42.373Z,98596.04
2018-09-24T23:25:15.082Z,98590.08
2018-09-24T23:27:48.030Z,98588.25
2018-09-24T23:30:20.825Z,98584.39
2018-09-24T23:32:53.808Z,98586.84
2018-09-24T23:35:26.860Z,98591.38
2018-09-24T23:37:59.876Z,98593.98
2018-09-24T23:40:32.852Z,98593.22
2018-09-24T23:43:05.763Z,98591.88
2018-09-24T23:45:38.591Z,98588.58
2018-09-24T23:48:11.589Z,98596.22
2018-09-24T23:50:44.245Z,98589.34
2018-09-24T23:53:16.929Z,98601.36
2018-09-24T23:55:49.692Z,98602.33
2018-09-24T23:58:22.400Z,98608.95
